Wall, South Dakota
Current Conditions -  °F | °C
As of 11:55 AM on Tuesday 21 Oct 2014 (Local Time) from KPHP Reporting Station
Clear Clear  
Wind Chill: 77°   Ceiling: Unl
Heat Index: 78°   Visibility: 10mi
Dew Point: 49°   Wind: 16mph
Humidity: 37%   Direction: 200°SSW
Pressure: 29.8"   Gusts: 23mph
Location:  43.99°N, 102.24°W
Report Text: KPHP 211755Z AUTO 20014G20KT 10SM CLR 25/09 A2980 RMK AO2 SLP075 T02500094 10250 20122 58013
Loading
Personal Weather Stations






























Interactive Weather Map
Tropical Storm Tracking
New forecast layout! Learn more

10-Day Weather Forecast

Advertisements
Track Severe Weather on mobile